sensor_id;sensor_type;location;lat;lon;timestamp;P1;durP1;ratioP1;P2;durP2;ratioP2
69736;SDS011;64476;55.004;73.342;2022-11-11T00:00:50;19.15;;;11.63;;
69736;SDS011;64476;55.004;73.342;2022-11-11T00:03:47;14.77;;;12.05;;
69736;SDS011;64476;55.004;73.342;2022-11-11T00:06:32;13.32;;;11.60;;
69736;SDS011;64476;55.004;73.342;2022-11-11T00:09:17;13.50;;;11.75;;
69736;SDS011;64476;55.004;73.342;2022-11-11T00:12:02;15.97;;;12.37;;
69736;SDS011;64476;55.004;73.342;2022-11-11T00:14:55;14.32;;;11.50;;
69736;SDS011;64476;55.004;73.342;2022-11-11T00:17:40;17.00;;;11.70;;
69736;SDS011;64476;55.004;73.342;2022-11-11T00:20:43;15.00;;;10.95;;
69736;SDS011;64476;55.004;73.342;2022-11-11T00:23:52;14.85;;;11.35;;
69736;SDS011;64476;55.004;73.342;2022-11-11T00:26:56;13.67;;;11.73;;
69736;SDS011;64476;55.004;73.342;2022-11-11T00:29:44;13.75;;;11.15;;
69736;SDS011;64476;55.004;73.342;2022-11-11T00:32:31;16.33;;;12.20;;
69736;SDS011;64476;55.004;73.342;2022-11-11T00:35:19;16.50;;;12.63;;
69736;SDS011;64476;55.004;73.342;2022-11-11T00:38:29;14.30;;;12.02;;
69736;SDS011;64476;55.004;73.342;2022-11-11T00:41:29;14.70;;;12.02;;
69736;SDS011;64476;55.004;73.342;2022-11-11T00:44:14;18.23;;;12.48;;
69736;SDS011;64476;55.004;73.342;2022-11-11T00:47:04;21.55;;;12.40;;
69736;SDS011;64476;55.004;73.342;2022-11-11T00:50:22;14.75;;;12.23;;
69736;SDS011;64476;55.004;73.342;2022-11-11T00:53:29;14.15;;;12.02;;
69736;SDS011;64476;55.004;73.342;2022-11-11T00:56:19;18.05;;;12.77;;
69736;SDS011;64476;55.004;73.342;2022-11-11T00:59:18;14.23;;;11.18;;
69736;SDS011;64476;55.004;73.342;2022-11-11T01:02:10;15.57;;;12.38;;
69736;SDS011;64476;55.004;73.342;2022-11-11T01:04:55;12.38;;;10.93;;
69736;SDS011;64476;55.004;73.342;2022-11-11T01:07:40;15.18;;;11.73;;
69736;SDS011;64476;55.004;73.342;2022-11-11T01:10:25;11.90;;;10.60;;
69736;SDS011;64476;55.004;73.342;2022-11-11T01:13:30;13.18;;;10.73;;
69736;SDS011;64476;55.004;73.342;2022-11-11T01:16:21;14.13;;;11.30;;
69736;SDS011;64476;55.004;73.342;2022-11-11T01:19:09;15.85;;;11.43;;
69736;SDS011;64476;55.004;73.342;2022-11-11T01:21:54;16.92;;;11.13;;
69736;SDS011;64476;55.004;73.342;2022-11-11T01:24:39;22.65;;;12.50;;
69736;SDS011;64476;55.004;73.342;2022-11-11T01:27:24;17.52;;;11.98;;
69736;SDS011;64476;55.004;73.342;2022-11-11T01:30:09;19.42;;;11.55;;
69736;SDS011;64476;55.004;73.342;2022-11-11T01:32:57;13.65;;;11.25;;
69736;SDS011;64476;55.004;73.342;2022-11-11T01:36:14;14.93;;;11.43;;
69736;SDS011;64476;55.004;73.342;2022-11-11T01:39:10;13.32;;;11.70;;
69736;SDS011;64476;55.004;73.342;2022-11-11T01:41:55;15.38;;;11.38;;
69736;SDS011;64476;55.004;73.342;2022-11-11T01:44:45;15.57;;;11.13;;
69736;SDS011;64476;55.004;73.342;2022-11-11T01:47:30;14.95;;;11.40;;
69736;SDS011;64476;55.004;73.342;2022-11-11T01:53:33;13.70;;;11.20;;
69736;SDS011;64476;55.004;73.342;2022-11-11T01:56:20;19.20;;;11.98;;
69736;SDS011;64476;55.004;73.342;2022-11-11T01:59:07;19.75;;;11.80;;
69736;SDS011;64476;55.004;73.342;2022-11-11T02:01:59;14.50;;;11.50;;
69736;SDS011;64476;55.004;73.342;2022-11-11T02:04:50;16.83;;;11.48;;
69736;SDS011;64476;55.004;73.342;2022-11-11T02:07:41;19.05;;;11.68;;
69736;SDS011;64476;55.004;73.342;2022-11-11T02:10:26;22.47;;;13.80;;
69736;SDS011;64476;55.004;73.342;2022-11-11T02:13:14;19.83;;;14.50;;
69736;SDS011;64476;55.004;73.342;2022-11-11T02:16:50;26.58;;;13.70;;
69736;SDS011;64476;55.004;73.342;2022-11-11T02:22:37;20.98;;;13.55;;
69736;SDS011;64476;55.004;73.342;2022-11-11T02:25:21;26.00;;;13.77;;
69736;SDS011;64476;55.004;73.342;2022-11-11T02:28:11;19.85;;;13.32;;
69736;SDS011;64476;55.004;73.342;2022-11-11T02:33:48;22.02;;;15.45;;
69736;SDS011;64476;55.004;73.342;2022-11-11T02:36:30;21.38;;;14.38;;
69736;SDS011;64476;55.004;73.342;2022-11-11T02:39:16;25.15;;;13.23;;
69736;SDS011;64476;55.004;73.342;2022-11-11T02:42:00;16.50;;;12.70;;
69736;SDS011;64476;55.004;73.342;2022-11-11T02:44:48;25.30;;;13.65;;
69736;SDS011;64476;55.004;73.342;2022-11-11T02:47:33;24.92;;;15.82;;
69736;SDS011;64476;55.004;73.342;2022-11-11T02:50:18;21.60;;;13.48;;
69736;SDS011;64476;55.004;73.342;2022-11-11T02:53:03;19.73;;;12.60;;
69736;SDS011;64476;55.004;73.342;2022-11-11T02:55:50;22.30;;;13.10;;
69736;SDS011;64476;55.004;73.342;2022-11-11T02:58:45;28.63;;;13.38;;
69736;SDS011;64476;55.004;73.342;2022-11-11T03:01:37;23.00;;;15.13;;
69736;SDS011;64476;55.004;73.342;2022-11-11T03:04:22;26.17;;;13.98;;
69736;SDS011;64476;55.004;73.342;2022-11-11T03:07:08;24.48;;;15.77;;
69736;SDS011;64476;55.004;73.342;2022-11-11T03:09:52;23.45;;;14.10;;
69736;SDS011;64476;55.004;73.342;2022-11-11T03:16:25;15.50;;;12.37;;
69736;SDS011;64476;55.004;73.342;2022-11-11T03:19:31;20.17;;;14.43;;
69736;SDS011;64476;55.004;73.342;2022-11-11T03:22:16;19.92;;;12.93;;
69736;SDS011;64476;55.004;73.342;2022-11-11T03:25:01;18.85;;;13.07;;
69736;SDS011;64476;55.004;73.342;2022-11-11T03:30:50;18.67;;;12.23;;
69736;SDS011;64476;55.004;73.342;2022-11-11T03:33:35;27.67;;;16.17;;
69736;SDS011;64476;55.004;73.342;2022-11-11T03:36:43;20.15;;;13.48;;
69736;SDS011;64476;55.004;73.342;2022-11-11T03:43:42;24.80;;;14.80;;
69736;SDS011;64476;55.004;73.342;2022-11-11T03:49:46;24.38;;;13.65;;
69736;SDS011;64476;55.004;73.342;2022-11-11T03:52:31;20.65;;;13.77;;
69736;SDS011;64476;55.004;73.342;2022-11-11T03:55:26;16.98;;;13.02;;
69736;SDS011;64476;55.004;73.342;2022-11-11T03:58:11;18.90;;;13.63;;
69736;SDS011;64476;55.004;73.342;2022-11-11T04:00:58;19.67;;;12.98;;
69736;SDS011;64476;55.004;73.342;2022-11-11T04:03:55;18.48;;;13.77;;
69736;SDS011;64476;55.004;73.342;2022-11-11T04:10:55;20.83;;;15.88;;
69736;SDS011;64476;55.004;73.342;2022-11-11T04:13:41;18.50;;;12.93;;
69736;SDS011;64476;55.004;73.342;2022-11-11T04:20:12;17.60;;;12.68;;
69736;SDS011;64476;55.004;73.342;2022-11-11T04:23:20;14.40;;;11.55;;
69736;SDS011;64476;55.004;73.342;2022-11-11T04:26:05;17.23;;;12.73;;
69736;SDS011;64476;55.004;73.342;2022-11-11T04:28:56;15.48;;;11.73;;
69736;SDS011;64476;55.004;73.342;2022-11-11T04:32:00;15.18;;;11.65;;
69736;SDS011;64476;55.004;73.342;2022-11-11T04:35:11;16.25;;;11.60;;
69736;SDS011;64476;55.004;73.342;2022-11-11T04:37:57;20.23;;;11.55;;
69736;SDS011;64476;55.004;73.342;2022-11-11T04:41:02;15.13;;;11.98;;
69736;SDS011;64476;55.004;73.342;2022-11-11T04:43:46;16.50;;;11.65;;
69736;SDS011;64476;55.004;73.342;2022-11-11T04:46:50;16.38;;;11.05;;
69736;SDS011;64476;55.004;73.342;2022-11-11T04:49:47;19.48;;;12.25;;
69736;SDS011;64476;55.004;73.342;2022-11-11T04:52:39;17.05;;;11.90;;
69736;SDS011;64476;55.004;73.342;2022-11-11T04:55:26;14.95;;;12.15;;
69736;SDS011;64476;55.004;73.342;2022-11-11T04:58:31;17.35;;;11.88;;
69736;SDS011;64476;55.004;73.342;2022-11-11T05:01:19;17.98;;;13.30;;
69736;SDS011;64476;55.004;73.342;2022-11-11T05:04:23;17.88;;;12.63;;
69736;SDS011;64476;55.004;73.342;2022-11-11T05:07:13;13.85;;;11.30;;
69736;SDS011;64476;55.004;73.342;2022-11-11T05:10:17;17.10;;;11.50;;
69736;SDS011;64476;55.004;73.342;2022-11-11T05:13:02;15.73;;;11.33;;
69736;SDS011;64476;55.004;73.342;2022-11-11T05:16:20;21.20;;;13.17;;
69736;SDS011;64476;55.004;73.342;2022-11-11T05:19:26;19.10;;;12.93;;
69736;SDS011;64476;55.004;73.342;2022-11-11T05:22:41;15.27;;;11.57;;
69736;SDS011;64476;55.004;73.342;2022-11-11T05:25:31;15.82;;;12.10;;
69736;SDS011;64476;55.004;73.342;2022-11-11T05:28:17;18.50;;;12.43;;
69736;SDS011;64476;55.004;73.342;2022-11-11T05:31:02;14.68;;;11.93;;
69736;SDS011;64476;55.004;73.342;2022-11-11T05:33:46;14.90;;;12.30;;
69736;SDS011;64476;55.004;73.342;2022-11-11T05:36:31;16.90;;;12.10;;
69736;SDS011;64476;55.004;73.342;2022-11-11T05:39:22;20.15;;;12.13;;
69736;SDS011;64476;55.004;73.342;2022-11-11T05:42:25;21.10;;;13.52;;
69736;SDS011;64476;55.004;73.342;2022-11-11T05:45:14;19.67;;;14.48;;
69736;SDS011;64476;55.004;73.342;2022-11-11T05:48:09;16.90;;;12.35;;
69736;SDS011;64476;55.004;73.342;2022-11-11T05:50:54;18.40;;;12.70;;
69736;SDS011;64476;55.004;73.342;2022-11-11T05:53:43;21.08;;;14.88;;
69736;SDS011;64476;55.004;73.342;2022-11-11T05:56:30;26.95;;;14.82;;
69736;SDS011;64476;55.004;73.342;2022-11-11T05:59:15;19.90;;;13.80;;
69736;SDS011;64476;55.004;73.342;2022-11-11T06:02:00;17.50;;;14.63;;
69736;SDS011;64476;55.004;73.342;2022-11-11T06:04:45;21.50;;;14.88;;
69736;SDS011;64476;55.004;73.342;2022-11-11T06:07:52;22.93;;;16.07;;
69736;SDS011;64476;55.004;73.342;2022-11-11T06:10:36;23.05;;;16.55;;
69736;SDS011;64476;55.004;73.342;2022-11-11T06:13:21;21.85;;;15.60;;
69736;SDS011;64476;55.004;73.342;2022-11-11T06:16:00;19.98;;;14.52;;
69736;SDS011;64476;55.004;73.342;2022-11-11T06:18:55;26.50;;;17.23;;
69736;SDS011;64476;55.004;73.342;2022-11-11T06:21:40;23.98;;;16.58;;
69736;SDS011;64476;55.004;73.342;2022-11-11T06:24:45;21.02;;;15.05;;
69736;SDS011;64476;55.004;73.342;2022-11-11T06:28:00;20.63;;;14.90;;
69736;SDS011;64476;55.004;73.342;2022-11-11T06:30:55;21.58;;;14.82;;
69736;SDS011;64476;55.004;73.342;2022-11-11T06:37:31;23.85;;;16.45;;
69736;SDS011;64476;55.004;73.342;2022-11-11T06:40:47;17.60;;;13.98;;
69736;SDS011;64476;55.004;73.342;2022-11-11T06:43:42;20.38;;;13.90;;
69736;SDS011;64476;55.004;73.342;2022-11-11T06:46:27;25.13;;;15.53;;
69736;SDS011;64476;55.004;73.342;2022-11-11T06:49:18;39.95;;;21.23;;
69736;SDS011;64476;55.004;73.342;2022-11-11T06:52:06;22.92;;;16.63;;
69736;SDS011;64476;55.004;73.342;2022-11-11T06:54:51;23.15;;;15.07;;
69736;SDS011;64476;55.004;73.342;2022-11-11T06:57:36;18.45;;;14.55;;
69736;SDS011;64476;55.004;73.342;2022-11-11T07:00:32;18.23;;;13.95;;
69736;SDS011;64476;55.004;73.342;2022-11-11T07:03:19;20.27;;;14.20;;
69736;SDS011;64476;55.004;73.342;2022-11-11T07:06:21;18.08;;;12.07;;
69736;SDS011;64476;55.004;73.342;2022-11-11T07:09:06;14.73;;;10.95;;
69736;SDS011;64476;55.004;73.342;2022-11-11T07:11:51;16.08;;;11.25;;
69736;SDS011;64476;55.004;73.342;2022-11-11T07:14:40;17.83;;;11.20;;
69736;SDS011;64476;55.004;73.342;2022-11-11T07:17:30;17.73;;;11.75;;
69736;SDS011;64476;55.004;73.342;2022-11-11T07:20:15;19.30;;;11.20;;
69736;SDS011;64476;55.004;73.342;2022-11-11T07:23:00;16.58;;;11.65;;
69736;SDS011;64476;55.004;73.342;2022-11-11T07:25:45;17.65;;;11.82;;
69736;SDS011;64476;55.004;73.342;2022-11-11T07:28:29;18.48;;;12.38;;
69736;SDS011;64476;55.004;73.342;2022-11-11T07:31:18;16.05;;;12.48;;
69736;SDS011;64476;55.004;73.342;2022-11-11T07:34:32;22.17;;;13.37;;
69736;SDS011;64476;55.004;73.342;2022-11-11T07:37:22;30.00;;;14.35;;
69736;SDS011;64476;55.004;73.342;2022-11-11T07:40:08;21.45;;;14.18;;
69736;SDS011;64476;55.004;73.342;2022-11-11T07:46:22;24.40;;;13.83;;
69736;SDS011;64476;55.004;73.342;2022-11-11T07:49:20;24.35;;;15.95;;
69736;SDS011;64476;55.004;73.342;2022-11-11T07:52:21;20.98;;;14.68;;
69736;SDS011;64476;55.004;73.342;2022-11-11T07:55:07;25.83;;;15.25;;
69736;SDS011;64476;55.004;73.342;2022-11-11T07:57:52;23.27;;;14.82;;
69736;SDS011;64476;55.004;73.342;2022-11-11T08:00:37;21.42;;;15.13;;
69736;SDS011;64476;55.004;73.342;2022-11-11T08:03:22;24.35;;;15.38;;
69736;SDS011;64476;55.004;73.342;2022-11-11T08:06:23;26.01;;;15.97;;
69736;SDS011;64476;55.004;73.342;2022-11-11T08:09:08;23.95;;;15.52;;
69736;SDS011;64476;55.004;73.342;2022-11-11T08:11:57;21.85;;;15.57;;
69736;SDS011;64476;55.004;73.342;2022-11-11T08:15:01;25.08;;;15.88;;
69736;SDS011;64476;55.004;73.342;2022-11-11T08:17:48;31.85;;;16.77;;
69736;SDS011;64476;55.004;73.342;2022-11-11T08:20:35;22.27;;;15.05;;
69736;SDS011;64476;55.004;73.342;2022-11-11T08:23:52;21.27;;;15.05;;
69736;SDS011;64476;55.004;73.342;2022-11-11T08:26:47;25.02;;;16.02;;
69736;SDS011;64476;55.004;73.342;2022-11-11T08:29:34;24.35;;;15.70;;
69736;SDS011;64476;55.004;73.342;2022-11-11T08:32:19;25.80;;;15.75;;
69736;SDS011;64476;55.004;73.342;2022-11-11T08:35:10;25.60;;;16.23;;
69736;SDS011;64476;55.004;73.342;2022-11-11T08:38:05;24.97;;;16.13;;
69736;SDS011;64476;55.004;73.342;2022-11-11T08:40:50;20.58;;;14.48;;
69736;SDS011;64476;55.004;73.342;2022-11-11T08:43:36;20.08;;;15.48;;
69736;SDS011;64476;55.004;73.342;2022-11-11T08:46:23;20.68;;;14.72;;
69736;SDS011;64476;55.004;73.342;2022-11-11T08:49:09;22.40;;;16.10;;
69736;SDS011;64476;55.004;73.342;2022-11-11T08:51:55;26.33;;;16.33;;
69736;SDS011;64476;55.004;73.342;2022-11-11T08:54:40;24.60;;;16.15;;
69736;SDS011;64476;55.004;73.342;2022-11-11T08:57:44;21.23;;;15.45;;
69736;SDS011;64476;55.004;73.342;2022-11-11T09:00:30;20.63;;;14.90;;
69736;SDS011;64476;55.004;73.342;2022-11-11T09:03:25;20.10;;;14.50;;
69736;SDS011;64476;55.004;73.342;2022-11-11T09:06:14;20.72;;;14.94;;
69736;SDS011;64476;55.004;73.342;2022-11-11T09:09:00;24.08;;;15.02;;
69736;SDS011;64476;55.004;73.342;2022-11-11T09:11:45;22.15;;;14.13;;
69736;SDS011;64476;55.004;73.342;2022-11-11T09:14:30;23.05;;;15.50;;
69736;SDS011;64476;55.004;73.342;2022-11-11T09:17:15;27.92;;;15.20;;
69736;SDS011;64476;55.004;73.342;2022-11-11T09:20:00;20.70;;;15.00;;
69736;SDS011;64476;55.004;73.342;2022-11-11T09:22:48;18.63;;;14.68;;
69736;SDS011;64476;55.004;73.342;2022-11-11T09:25:41;21.10;;;13.88;;
69736;SDS011;64476;55.004;73.342;2022-11-11T09:28:26;20.27;;;14.60;;
69736;SDS011;64476;55.004;73.342;2022-11-11T09:31:18;18.97;;;13.88;;
69736;SDS011;64476;55.004;73.342;2022-11-11T09:34:03;18.60;;;13.63;;
69736;SDS011;64476;55.004;73.342;2022-11-11T09:36:50;21.37;;;13.57;;
69736;SDS011;64476;55.004;73.342;2022-11-11T09:39:40;17.42;;;12.80;;
69736;SDS011;64476;55.004;73.342;2022-11-11T09:58:24;16.90;;;12.68;;
69736;SDS011;64476;55.004;73.342;2022-11-11T10:01:19;14.38;;;12.88;;
69736;SDS011;64476;55.004;73.342;2022-11-11T10:07:37;14.48;;;11.80;;
69736;SDS011;64476;55.004;73.342;2022-11-11T10:10:33;15.93;;;10.98;;
69736;SDS011;64476;55.004;73.342;2022-11-11T10:13:32;12.20;;;10.77;;
69736;SDS011;64476;55.004;73.342;2022-11-11T10:16:39;13.35;;;10.18;;
69736;SDS011;64476;55.004;73.342;2022-11-11T10:19:52;15.05;;;10.48;;
69736;SDS011;64476;55.004;73.342;2022-11-11T10:23:20;14.80;;;10.88;;
69736;SDS011;64476;55.004;73.342;2022-11-11T10:26:25;16.58;;;11.80;;
69736;SDS011;64476;55.004;73.342;2022-11-11T10:29:42;14.48;;;11.25;;
69736;SDS011;64476;55.004;73.342;2022-11-11T10:32:32;14.55;;;10.85;;
69736;SDS011;64476;55.004;73.342;2022-11-11T10:35:30;17.92;;;10.93;;
69736;SDS011;64476;55.004;73.342;2022-11-11T10:44:22;15.00;;;11.57;;
69736;SDS011;64476;55.004;73.342;2022-11-11T10:54:04;13.02;;;9.95;;
69736;SDS011;64476;55.004;73.342;2022-11-11T10:57:12;15.00;;;11.30;;
69736;SDS011;64476;55.004;73.342;2022-11-11T11:00:06;13.23;;;11.18;;
69736;SDS011;64476;55.004;73.342;2022-11-11T11:06:23;12.70;;;11.10;;
69736;SDS011;64476;55.004;73.342;2022-11-11T11:09:14;12.65;;;10.57;;
69736;SDS011;64476;55.004;73.342;2022-11-11T11:15:21;14.45;;;11.52;;
69736;SDS011;64476;55.004;73.342;2022-11-11T11:18:11;16.38;;;12.38;;
69736;SDS011;64476;55.004;73.342;2022-11-11T11:21:08;17.67;;;12.23;;
69736;SDS011;64476;55.004;73.342;2022-11-11T11:23:54;14.27;;;11.93;;
69736;SDS011;64476;55.004;73.342;2022-11-11T11:30:25;17.15;;;13.32;;
69736;SDS011;64476;55.004;73.342;2022-11-11T11:33:10;24.90;;;13.57;;
69736;SDS011;64476;55.004;73.342;2022-11-11T11:39:12;19.17;;;13.30;;
69736;SDS011;64476;55.004;73.342;2022-11-11T11:42:57;18.83;;;13.57;;
69736;SDS011;64476;55.004;73.342;2022-11-11T11:45:35;17.52;;;12.57;;
69736;SDS011;64476;55.004;73.342;2022-11-11T11:55:18;23.55;;;14.88;;
69736;SDS011;64476;55.004;73.342;2022-11-11T12:01:20;18.42;;;14.13;;
69736;SDS011;64476;55.004;73.342;2022-11-11T12:04:23;24.98;;;15.27;;
69736;SDS011;64476;55.004;73.342;2022-11-11T12:14:05;28.63;;;16.13;;
69736;SDS011;64476;55.004;73.342;2022-11-11T12:17:57;25.70;;;16.00;;
69736;SDS011;64476;55.004;73.342;2022-11-11T12:39:20;33.25;;;16.20;;
69736;SDS011;64476;55.004;73.342;2022-11-11T12:46:53;27.60;;;16.88;;
69736;SDS011;64476;55.004;73.342;2022-11-11T12:55:29;31.23;;;17.98;;
69736;SDS011;64476;55.004;73.342;2022-11-11T12:58:59;34.22;;;20.67;;
69736;SDS011;64476;55.004;73.342;2022-11-11T13:05:08;34.15;;;19.85;;
69736;SDS011;64476;55.004;73.342;2022-11-11T13:17:18;45.25;;;21.77;;
69736;SDS011;64476;55.004;73.342;2022-11-11T13:27:05;38.70;;;20.10;;
69736;SDS011;64476;55.004;73.342;2022-11-11T13:33:34;39.83;;;19.60;;
69736;SDS011;64476;55.004;73.342;2022-11-11T13:36:28;40.53;;;18.50;;
69736;SDS011;64476;55.004;73.342;2022-11-11T13:39:33;44.03;;;21.63;;
69736;SDS011;64476;55.004;73.342;2022-11-11T13:42:24;47.28;;;21.02;;
69736;SDS011;64476;55.004;73.342;2022-11-11T13:45:21;48.75;;;21.85;;
69736;SDS011;64476;55.004;73.342;2022-11-11T13:54:40;43.53;;;22.45;;
69736;SDS011;64476;55.004;73.342;2022-11-11T13:57:32;38.35;;;21.90;;
69736;SDS011;64476;55.004;73.342;2022-11-11T14:08:57;52.72;;;21.25;;
69736;SDS011;64476;55.004;73.342;2022-11-11T14:11:42;52.97;;;23.83;;
69736;SDS011;64476;55.004;73.342;2022-11-11T14:17:20;41.93;;;21.77;;
69736;SDS011;64476;55.004;73.342;2022-11-11T14:26:20;40.72;;;22.75;;
69736;SDS011;64476;55.004;73.342;2022-11-11T14:29:15;27.25;;;18.40;;
69736;SDS011;64476;55.004;73.342;2022-11-11T14:32:07;29.58;;;19.45;;
69736;SDS011;64476;55.004;73.342;2022-11-11T14:35:14;32.30;;;20.98;;
69736;SDS011;64476;55.004;73.342;2022-11-11T14:47:22;29.23;;;16.17;;
69736;SDS011;64476;55.004;73.342;2022-11-11T14:53:16;16.85;;;13.48;;
69736;SDS011;64476;55.004;73.342;2022-11-11T14:56:04;19.73;;;14.70;;
69736;SDS011;64476;55.004;73.342;2022-11-11T14:59:02;23.80;;;15.52;;
69736;SDS011;64476;55.004;73.342;2022-11-11T15:01:55;23.02;;;15.10;;
69736;SDS011;64476;55.004;73.342;2022-11-11T15:04:49;25.45;;;16.77;;
69736;SDS011;64476;55.004;73.342;2022-11-11T15:11:10;22.55;;;16.38;;
69736;SDS011;64476;55.004;73.342;2022-11-11T15:23:45;19.92;;;14.38;;
69736;SDS011;64476;55.004;73.342;2022-11-11T15:33:17;16.67;;;12.10;;
69736;SDS011;64476;55.004;73.342;2022-11-11T15:39:53;21.13;;;13.40;;
69736;SDS011;64476;55.004;73.342;2022-11-11T15:42:42;23.50;;;14.63;;
69736;SDS011;64476;55.004;73.342;2022-11-11T15:45:33;19.15;;;13.18;;
69736;SDS011;64476;55.004;73.342;2022-11-11T15:48:39;16.60;;;12.63;;
69736;SDS011;64476;55.004;73.342;2022-11-11T15:51:27;18.10;;;12.90;;
69736;SDS011;64476;55.004;73.342;2022-11-11T15:57:13;17.05;;;12.10;;
69736;SDS011;64476;55.004;73.342;2022-11-11T16:00:45;17.88;;;12.98;;
69736;SDS011;64476;55.004;73.342;2022-11-11T16:06:23;14.91;;;12.95;;
69736;SDS011;64476;55.004;73.342;2022-11-11T16:09:08;22.58;;;14.70;;
69736;SDS011;64476;55.004;73.342;2022-11-11T16:11:56;22.13;;;13.53;;
69736;SDS011;64476;55.004;73.342;2022-11-11T16:14:41;17.23;;;12.73;;
69736;SDS011;64476;55.004;73.342;2022-11-11T16:17:35;16.65;;;11.65;;
69736;SDS011;64476;55.004;73.342;2022-11-11T16:20:41;19.75;;;12.35;;
69736;SDS011;64476;55.004;73.342;2022-11-11T16:23:33;16.13;;;12.43;;
69736;SDS011;64476;55.004;73.342;2022-11-11T16:26:20;16.48;;;13.05;;
69736;SDS011;64476;55.004;73.342;2022-11-11T16:29:12;27.10;;;12.75;;
69736;SDS011;64476;55.004;73.342;2022-11-11T16:31:59;18.60;;;13.05;;
69736;SDS011;64476;55.004;73.342;2022-11-11T16:34:46;23.25;;;14.80;;
69736;SDS011;64476;55.004;73.342;2022-11-11T16:37:49;21.63;;;14.00;;
69736;SDS011;64476;55.004;73.342;2022-11-11T16:40:50;24.25;;;14.07;;
69736;SDS011;64476;55.004;73.342;2022-11-11T16:43:51;20.77;;;14.18;;
69736;SDS011;64476;55.004;73.342;2022-11-11T16:46:43;20.20;;;14.27;;
69736;SDS011;64476;55.004;73.342;2022-11-11T17:03:13;21.42;;;13.98;;
69736;SDS011;64476;55.004;73.342;2022-11-11T17:06:18;22.73;;;14.12;;
69736;SDS011;64476;55.004;73.342;2022-11-11T17:09:13;26.73;;;14.48;;
69736;SDS011;64476;55.004;73.342;2022-11-11T17:12:17;22.15;;;14.45;;
69736;SDS011;64476;55.004;73.342;2022-11-11T17:15:21;20.00;;;13.07;;
69736;SDS011;64476;55.004;73.342;2022-11-11T17:18:38;20.95;;;12.85;;
69736;SDS011;64476;55.004;73.342;2022-11-11T17:21:18;25.58;;;14.09;;
69736;SDS011;64476;55.004;73.342;2022-11-11T17:24:04;16.25;;;12.40;;
69736;SDS011;64476;55.004;73.342;2022-11-11T17:26:49;29.52;;;14.40;;
69736;SDS011;64476;55.004;73.342;2022-11-11T17:29:42;20.52;;;13.38;;
69736;SDS011;64476;55.004;73.342;2022-11-11T17:32:27;22.25;;;14.07;;
69736;SDS011;64476;55.004;73.342;2022-11-11T17:35:17;19.35;;;12.68;;
69736;SDS011;64476;55.004;73.342;2022-11-11T17:38:04;22.05;;;12.45;;
69736;SDS011;64476;55.004;73.342;2022-11-11T17:41:29;18.77;;;13.20;;
69736;SDS011;64476;55.004;73.342;2022-11-11T17:44:23;19.98;;;11.57;;
69736;SDS011;64476;55.004;73.342;2022-11-11T17:47:14;18.95;;;12.00;;
69736;SDS011;64476;55.004;73.342;2022-11-11T17:50:11;18.35;;;12.38;;
69736;SDS011;64476;55.004;73.342;2022-11-11T17:53:23;18.20;;;11.63;;
69736;SDS011;64476;55.004;73.342;2022-11-11T17:56:18;20.55;;;12.76;;
69736;SDS011;64476;55.004;73.342;2022-11-11T17:59:13;15.57;;;11.10;;
69736;SDS011;64476;55.004;73.342;2022-11-11T18:01:58;19.42;;;12.93;;
69736;SDS011;64476;55.004;73.342;2022-11-11T18:04:46;20.98;;;12.13;;
69736;SDS011;64476;55.004;73.342;2022-11-11T18:07:31;14.90;;;10.25;;
69736;SDS011;64476;55.004;73.342;2022-11-11T18:10:16;19.65;;;11.52;;
69736;SDS011;64476;55.004;73.342;2022-11-11T18:13:28;17.50;;;10.60;;
69736;SDS011;64476;55.004;73.342;2022-11-11T18:16:19;11.88;;;9.43;;
69736;SDS011;64476;55.004;73.342;2022-11-11T18:19:05;13.40;;;10.02;;
69736;SDS011;64476;55.004;73.342;2022-11-11T18:22:00;15.13;;;9.35;;
69736;SDS011;64476;55.004;73.342;2022-11-11T18:24:45;16.55;;;10.13;;
69736;SDS011;64476;55.004;73.342;2022-11-11T18:27:30;14.27;;;10.30;;
69736;SDS011;64476;55.004;73.342;2022-11-11T18:30:15;25.20;;;10.57;;
69736;SDS011;64476;55.004;73.342;2022-11-11T18:33:04;14.73;;;11.20;;
69736;SDS011;64476;55.004;73.342;2022-11-11T18:35:50;14.75;;;11.05;;
69736;SDS011;64476;55.004;73.342;2022-11-11T18:41:54;14.45;;;10.45;;
69736;SDS011;64476;55.004;73.342;2022-11-11T18:44:39;15.05;;;11.25;;
69736;SDS011;64476;55.004;73.342;2022-11-11T18:47:34;13.32;;;9.77;;
69736;SDS011;64476;55.004;73.342;2022-11-11T18:50:19;13.25;;;9.57;;
69736;SDS011;64476;55.004;73.342;2022-11-11T18:53:12;11.17;;;8.80;;
69736;SDS011;64476;55.004;73.342;2022-11-11T19:02:50;12.60;;;9.07;;
69736;SDS011;64476;55.004;73.342;2022-11-11T19:05:45;11.88;;;9.18;;
69736;SDS011;64476;55.004;73.342;2022-11-11T19:08:34;10.73;;;9.18;;
69736;SDS011;64476;55.004;73.342;2022-11-11T19:11:18;11.05;;;8.80;;
69736;SDS011;64476;55.004;73.342;2022-11-11T19:14:12;11.55;;;8.70;;
69736;SDS011;64476;55.004;73.342;2022-11-11T19:16:58;10.63;;;8.65;;
69736;SDS011;64476;55.004;73.342;2022-11-11T19:19:43;9.82;;;8.82;;
69736;SDS011;64476;55.004;73.342;2022-11-11T19:22:29;11.15;;;8.77;;
69736;SDS011;64476;55.004;73.342;2022-11-11T19:25:24;12.85;;;9.27;;
69736;SDS011;64476;55.004;73.342;2022-11-11T19:28:19;11.52;;;8.48;;
69736;SDS011;64476;55.004;73.342;2022-11-11T19:31:08;11.93;;;9.15;;
69736;SDS011;64476;55.004;73.342;2022-11-11T19:33:56;11.77;;;8.10;;
69736;SDS011;64476;55.004;73.342;2022-11-11T19:36:42;11.48;;;8.63;;
69736;SDS011;64476;55.004;73.342;2022-11-11T19:39:54;13.13;;;8.13;;
69736;SDS011;64476;55.004;73.342;2022-11-11T19:42:26;12.03;;;7.80;;
69736;SDS011;64476;55.004;73.342;2022-11-11T19:45:11;9.30;;;7.60;;
69736;SDS011;64476;55.004;73.342;2022-11-11T19:48:01;9.18;;;6.55;;
69736;SDS011;64476;55.004;73.342;2022-11-11T19:50:46;8.68;;;6.70;;
69736;SDS011;64476;55.004;73.342;2022-11-11T19:53:34;7.45;;;6.35;;
69736;SDS011;64476;55.004;73.342;2022-11-11T19:56:42;6.60;;;5.90;;
69736;SDS011;64476;55.004;73.342;2022-11-11T19:59:27;10.13;;;5.72;;
69736;SDS011;64476;55.004;73.342;2022-11-11T20:02:12;7.80;;;5.40;;
69736;SDS011;64476;55.004;73.342;2022-11-11T20:05:00;8.43;;;5.55;;
69736;SDS011;64476;55.004;73.342;2022-11-11T20:07:45;7.05;;;5.22;;
69736;SDS011;64476;55.004;73.342;2022-11-11T20:10:52;5.70;;;5.18;;
69736;SDS011;64476;55.004;73.342;2022-11-11T20:13:36;6.75;;;6.05;;
69736;SDS011;64476;55.004;73.342;2022-11-11T20:16:21;6.62;;;5.43;;
69736;SDS011;64476;55.004;73.342;2022-11-11T20:19:06;5.78;;;5.15;;
69736;SDS011;64476;55.004;73.342;2022-11-11T20:22:25;6.57;;;5.60;;
69736;SDS011;64476;55.004;73.342;2022-11-11T20:25:10;6.22;;;4.57;;
69736;SDS011;64476;55.004;73.342;2022-11-11T20:27:58;4.82;;;4.30;;
69736;SDS011;64476;55.004;73.342;2022-11-11T20:30:42;6.35;;;4.28;;
69736;SDS011;64476;55.004;73.342;2022-11-11T20:33:31;4.85;;;4.38;;
69736;SDS011;64476;55.004;73.342;2022-11-11T20:36:18;5.47;;;4.22;;
69736;SDS011;64476;55.004;73.342;2022-11-11T20:39:03;6.57;;;4.07;;